createdAt,value
2023-04-04T00:01:05.457Z,13.57
2023-04-04T00:03:33.639Z,12.47
2023-04-04T00:06:04.226Z,8.30
2023-04-04T00:08:32.917Z,12.60
2023-04-04T00:11:03.453Z,9.77
2023-04-04T00:13:30.867Z,11.33
2023-04-04T00:15:59.448Z,11.60
2023-04-04T00:18:27.066Z,8.37
2023-04-04T00:20:54.813Z,8.63
2023-04-04T00:23:22.355Z,10.97
2023-04-04T00:25:53.144Z,8.83
2023-04-04T00:28:21.414Z,8.53
2023-04-04T00:30:49.144Z,9.50
2023-04-04T00:33:16.493Z,10.37
2023-04-04T00:35:44.147Z,11.63
2023-04-04T00:38:12.861Z,10.90
2023-04-04T00:40:44.067Z,8.10
2023-04-04T00:43:12.096Z,11.70
2023-04-04T00:45:39.618Z,10.20
2023-04-04T00:48:09.905Z,12.57
2023-04-04T00:50:37.784Z,8.30
2023-04-04T00:53:05.106Z,9.87
2023-04-04T00:55:33.324Z,9.37
2023-04-04T00:58:01.004Z,7.43
2023-04-04T01:00:28.818Z,7.50
2023-04-04T01:02:56.436Z,7.20
2023-04-04T01:05:23.859Z,12.73
2023-04-04T01:07:51.244Z,7.93
2023-04-04T01:10:18.955Z,9.00
2023-04-04T01:12:46.590Z,10.40
2023-04-04T01:15:13.943Z,10.10
2023-04-04T01:17:42.176Z,10.00
2023-04-04T01:20:13.878Z,10.90
2023-04-04T01:25:11.995Z,9.00
2023-04-04T01:27:41.963Z,9.35
2023-04-04T01:30:09.803Z,8.83
2023-04-04T01:32:49.574Z,9.37
2023-04-04T01:35:21.813Z,8.13
2023-04-04T01:37:48.840Z,8.10
2023-04-04T01:40:25.247Z,9.53
2023-04-04T01:42:53.375Z,8.53
2023-04-04T01:45:23.581Z,6.80
2023-04-04T01:47:51.517Z,7.37
2023-04-04T01:50:19.316Z,8.30
2023-04-04T01:52:46.670Z,7.27
2023-04-04T01:55:14.087Z,9.07
2023-04-04T01:57:42.343Z,7.20
2023-04-04T02:00:09.994Z,8.17
2023-04-04T02:02:37.748Z,5.70
2023-04-04T02:05:05.733Z,10.17
2023-04-04T02:07:33.170Z,7.77
2023-04-04T02:10:00.725Z,8.10
2023-04-04T02:12:28.122Z,6.90
2023-04-04T02:14:55.582Z,9.60
2023-04-04T02:17:23.037Z,6.50
2023-04-04T02:19:50.336Z,7.73
2023-04-04T02:22:17.992Z,6.67
2023-04-04T02:24:45.424Z,7.03
2023-04-04T02:27:12.890Z,8.03
2023-04-04T02:29:40.098Z,9.43
2023-04-04T02:32:07.959Z,5.90
2023-04-04T02:34:35.413Z,10.10
2023-04-04T02:37:02.981Z,5.70
2023-04-04T02:39:30.113Z,10.10
2023-04-04T02:41:57.669Z,10.43
2023-04-04T02:44:24.947Z,6.37
2023-04-04T02:46:52.419Z,10.83
2023-04-04T02:49:20.885Z,10.93
2023-04-04T02:51:48.439Z,8.80
2023-04-04T02:54:15.638Z,7.63
2023-04-04T02:56:42.974Z,7.87
2023-04-04T02:59:11.889Z,8.67
2023-04-04T03:01:39.928Z,7.83
2023-04-04T03:04:07.748Z,8.87
2023-04-04T03:06:35.230Z,9.70
2023-04-04T03:09:05.093Z,8.33
2023-04-04T03:11:35.736Z,10.00
2023-04-04T03:14:03.669Z,11.23
2023-04-04T03:16:31.296Z,8.70
2023-04-04T03:18:58.687Z,5.70
2023-04-04T03:21:26.636Z,7.17
2023-04-04T03:23:54.064Z,6.13
2023-04-04T03:26:21.361Z,6.97
2023-04-04T03:28:48.911Z,8.70
2023-04-04T03:31:16.415Z,6.57
2023-04-04T03:33:44.090Z,9.77
2023-04-04T03:36:14.607Z,10.50
2023-04-04T03:38:42.495Z,7.13
2023-04-04T03:41:12.758Z,6.10
2023-04-04T03:43:40.421Z,6.87
2023-04-04T03:46:08.198Z,8.57
2023-04-04T03:48:36.158Z,8.93
2023-04-04T03:51:05.339Z,7.80
2023-04-04T03:53:36.037Z,9.77
2023-04-04T03:56:03.354Z,6.90
2023-04-04T03:58:31.619Z,8.83
2023-04-04T04:01:00.104Z,8.33
2023-04-04T04:03:27.787Z,7.20
2023-04-04T04:05:55.855Z,8.23
2023-04-04T04:08:24.766Z,7.63
2023-04-04T04:10:52.783Z,10.17
2023-04-04T04:13:20.459Z,9.67
2023-04-04T04:15:48.121Z,7.10
2023-04-04T04:18:15.609Z,13.57
2023-04-04T04:20:43.451Z,7.97
2023-04-04T04:23:10.688Z,7.50
2023-04-04T04:25:38.005Z,10.23
2023-04-04T04:28:05.361Z,9.00
2023-04-04T04:30:32.146Z,8.80
2023-04-04T04:32:59.497Z,8.00
2023-04-04T04:35:27.320Z,8.47
2023-04-04T04:37:55.927Z,8.77
2023-04-04T04:40:23.229Z,10.47
2023-04-04T04:42:51.865Z,6.87
2023-04-04T04:45:20.451Z,7.60
2023-04-04T04:47:47.715Z,6.53
2023-04-04T04:50:14.996Z,8.13
2023-04-04T04:52:43.164Z,9.20
2023-04-04T04:55:11.152Z,9.33
2023-04-04T04:57:39.542Z,11.77
2023-04-04T05:00:07.482Z,8.83
2023-04-04T05:02:37.665Z,20.07
2023-04-04T05:05:05.782Z,10.10
2023-04-04T05:07:33.199Z,6.40
2023-04-04T05:10:01.122Z,7.50
2023-04-04T05:12:28.960Z,7.90
2023-04-04T05:14:59.714Z,7.70
2023-04-04T05:17:27.223Z,8.77
2023-04-04T05:19:57.862Z,10.80
2023-04-04T05:22:25.220Z,8.87
2023-04-04T05:24:53.978Z,10.30
2023-04-04T05:27:21.897Z,6.57
2023-04-04T05:29:49.453Z,9.93
2023-04-04T05:32:16.833Z,6.83
2023-04-04T05:34:45.650Z,11.77
2023-04-04T05:37:12.902Z,8.43
2023-04-04T05:39:40.913Z,7.63
2023-04-04T05:42:08.396Z,8.53
2023-04-04T05:44:36.495Z,8.00
2023-04-04T05:47:06.482Z,9.73
2023-04-04T05:49:37.875Z,9.20
2023-04-04T05:52:05.821Z,5.82
2023-04-04T05:54:33.272Z,6.10
2023-04-04T05:57:00.810Z,8.33
2023-04-04T05:59:29.544Z,7.90
2023-04-04T06:01:57.284Z,10.20
2023-04-04T06:04:25.162Z,6.97
2023-04-04T06:06:53.154Z,7.72
2023-04-04T06:09:21.376Z,6.60
2023-04-04T06:11:49.011Z,8.90
2023-04-04T06:14:16.444Z,6.78
2023-04-04T06:16:44.609Z,5.40
2023-04-04T06:19:12.346Z,7.82
2023-04-04T06:21:39.980Z,6.25
2023-04-04T06:24:07.803Z,5.28
2023-04-04T06:26:35.989Z,7.20
2023-04-04T06:29:04.044Z,6.82
2023-04-04T06:31:31.695Z,6.18
2023-04-04T06:33:59.683Z,7.00
2023-04-04T06:36:28.125Z,6.95
2023-04-04T06:38:56.383Z,5.75
2023-04-04T06:41:24.266Z,6.85
2023-04-04T06:43:51.836Z,5.50
2023-04-04T06:46:19.489Z,11.07
2023-04-04T06:48:46.793Z,7.57
2023-04-04T06:51:14.511Z,6.00
2023-04-04T06:53:45.393Z,5.47
2023-04-04T06:56:13.727Z,7.43
2023-04-04T06:58:41.829Z,6.63
2023-04-04T07:01:09.221Z,4.95
2023-04-04T07:03:37.132Z,5.82
2023-04-04T07:06:05.584Z,5.90
2023-04-04T07:08:36.873Z,7.45
2023-04-04T07:11:05.520Z,10.98
2023-04-04T07:13:33.682Z,7.10
2023-04-04T07:16:02.170Z,5.82
2023-04-04T07:18:30.022Z,5.95
2023-04-04T07:20:58.280Z,7.35
2023-04-04T07:23:25.533Z,8.32
2023-04-04T07:25:52.760Z,6.88
2023-04-04T07:28:23.908Z,6.13
2023-04-04T07:30:52.056Z,7.47
2023-04-04T07:33:19.589Z,5.95
2023-04-04T07:35:47.880Z,6.68
2023-04-04T07:38:15.547Z,6.05
2023-04-04T07:40:43.509Z,7.45
2023-04-04T07:43:10.805Z,6.97
2023-04-04T07:45:38.812Z,7.18
2023-04-04T07:48:06.729Z,4.55
2023-04-04T07:50:34.583Z,5.75
2023-04-04T07:53:02.647Z,5.25
2023-04-04T07:55:31.219Z,5.43
2023-04-04T07:57:59.156Z,6.80
2023-04-04T08:00:27.423Z,6.13
2023-04-04T08:03:00.073Z,6.05
2023-04-04T08:05:27.587Z,5.38
2023-04-04T08:07:55.301Z,6.85
2023-04-04T08:10:22.976Z,6.30
2023-04-04T08:12:50.589Z,5.55
2023-04-04T08:15:18.019Z,4.15
2023-04-04T08:17:45.979Z,5.13
2023-04-04T08:20:13.912Z,5.28
2023-04-04T08:22:41.722Z,7.63
2023-04-04T08:25:09.604Z,6.88
2023-04-04T08:27:37.167Z,6.85
2023-04-04T08:30:08.863Z,8.27
2023-04-04T08:32:36.859Z,8.40
2023-04-04T08:35:04.666Z,5.72
2023-04-04T08:37:32.550Z,10.95
2023-04-04T08:40:00.025Z,4.20
2023-04-04T08:42:29.030Z,4.70
2023-04-04T08:44:58.032Z,5.88
2023-04-04T08:47:26.686Z,14.57
2023-04-04T08:49:54.680Z,9.63
2023-04-04T08:52:24.551Z,5.00
2023-04-04T08:54:52.710Z,5.00
2023-04-04T08:57:21.432Z,6.22
2023-04-04T08:59:49.136Z,4.75
2023-04-04T09:02:24.609Z,5.35
2023-04-04T09:05:05.508Z,7.15
2023-04-04T09:07:36.489Z,4.95
2023-04-04T09:10:06.038Z,4.57
2023-04-04T09:12:34.084Z,8.63
2023-04-04T09:15:01.941Z,6.93
2023-04-04T09:17:29.868Z,3.88
2023-04-04T09:19:57.138Z,3.88
2023-04-04T09:22:24.768Z,5.65
2023-04-04T09:24:53.334Z,5.13
2023-04-04T09:27:21.540Z,4.25
2023-04-04T09:29:49.506Z,4.28
2023-04-04T09:32:17.887Z,4.68
2023-04-04T09:34:45.970Z,3.85
2023-04-04T09:37:16.334Z,3.75
2023-04-04T09:39:45.057Z,7.83
2023-04-04T09:42:13.312Z,7.47
2023-04-04T09:44:41.773Z,5.30
2023-04-04T09:47:36.218Z,4.15
2023-04-04T09:50:05.281Z,6.10
2023-04-04T09:52:34.536Z,6.18
2023-04-04T09:55:03.205Z,5.38
2023-04-04T09:57:35.665Z,5.97
2023-04-04T10:00:04.700Z,6.05
2023-04-04T10:02:32.113Z,5.18
2023-04-04T10:07:31.027Z,7.05
2023-04-04T10:10:02.498Z,5.43
2023-04-04T10:15:01.909Z,5.38
2023-04-04T10:17:37.172Z,4.18
2023-04-04T10:20:08.865Z,5.32
2023-04-04T10:22:37.963Z,14.90
2023-04-04T10:25:06.140Z,51.67
2023-04-04T10:27:37.405Z,16.55
2023-04-04T10:30:05.990Z,14.50
2023-04-04T10:32:39.535Z,7.45
2023-04-04T10:35:11.451Z,4.70
2023-04-04T10:37:44.479Z,6.43
2023-04-04T10:40:16.554Z,5.63
2023-04-04T10:42:48.344Z,6.80
2023-04-04T10:45:21.096Z,3.40
2023-04-04T10:47:49.894Z,3.97
2023-04-04T10:50:17.611Z,5.05
2023-04-04T10:52:48.155Z,3.80
2023-04-04T10:55:17.069Z,5.55
2023-04-04T10:57:46.600Z,4.50
2023-04-04T11:00:15.809Z,4.43
2023-04-04T11:02:50.896Z,3.72
2023-04-04T11:05:18.613Z,3.90
2023-04-04T11:07:57.180Z,5.68
2023-04-04T11:10:33.386Z,6.38
2023-04-04T11:13:12.207Z,3.22
2023-04-04T11:15:53.478Z,3.78
2023-04-04T11:18:30.560Z,3.95
2023-04-04T11:21:04.918Z,3.38
2023-04-04T11:23:59.383Z,6.20
2023-04-04T11:26:29.502Z,9.00
2023-04-04T11:28:57.723Z,3.50
2023-04-04T11:31:25.522Z,12.90
2023-04-04T11:34:12.815Z,17.67
2023-04-04T11:36:44.023Z,9.43
2023-04-04T11:39:16.430Z,6.30
2023-04-04T11:41:53.338Z,13.90
2023-04-04T11:44:22.283Z,20.27
2023-04-04T11:46:51.085Z,12.20
2023-04-04T11:49:19.009Z,15.25
2023-04-04T11:51:46.623Z,7.82
2023-04-04T11:54:18.150Z,6.13
2023-04-04T11:56:45.822Z,3.13
2023-04-04T11:59:14.690Z,5.72
2023-04-04T12:01:42.539Z,6.40
2023-04-04T12:04:10.372Z,5.47
2023-04-04T12:06:39.287Z,5.03
2023-04-04T12:09:07.390Z,3.90
2023-04-04T12:11:35.651Z,7.22
2023-04-04T12:14:03.937Z,3.72
2023-04-04T12:16:31.673Z,4.63
2023-04-04T12:19:02.777Z,5.18
2023-04-04T12:21:32.623Z,9.80
2023-04-04T12:24:03.629Z,14.02
2023-04-04T12:26:31.602Z,5.95
2023-04-04T12:28:59.169Z,7.50
2023-04-04T12:31:28.140Z,16.33
2023-04-04T12:33:55.883Z,8.80
2023-04-04T12:36:30.037Z,14.23
2023-04-04T12:39:06.414Z,15.80
2023-04-04T12:41:34.358Z,17.58
2023-04-04T12:44:05.311Z,9.43
2023-04-04T12:46:42.420Z,4.43
2023-04-04T12:49:12.870Z,9.65
2023-04-04T12:51:40.640Z,16.50
2023-04-04T12:54:08.444Z,11.73
2023-04-04T12:56:37.485Z,11.30
2023-04-04T12:59:05.658Z,15.38
2023-04-04T13:01:34.216Z,9.98
2023-04-04T13:04:03.943Z,10.95
2023-04-04T13:06:33.227Z,6.82
2023-04-04T13:09:01.362Z,6.80
2023-04-04T13:11:48.933Z,5.03
2023-04-04T13:14:16.136Z,10.52
2023-04-04T13:16:43.796Z,6.68
2023-04-04T13:19:14.887Z,5.28
2023-04-04T13:21:42.936Z,8.10
2023-04-04T13:24:11.097Z,5.60
2023-04-04T13:26:38.391Z,11.70
2023-04-04T13:29:07.182Z,7.10
2023-04-04T13:31:34.562Z,8.02
2023-04-04T13:34:02.527Z,5.43
2023-04-04T13:36:30.728Z,7.70
2023-04-04T13:38:58.560Z,8.77
2023-04-04T13:41:25.962Z,5.82
2023-04-04T13:43:53.844Z,6.60
2023-04-04T13:46:21.174Z,5.05
2023-04-04T13:48:48.599Z,6.37
2023-04-04T13:51:16.185Z,10.80
2023-04-04T13:53:46.072Z,5.37
2023-04-04T13:56:18.442Z,5.43
2023-04-04T13:58:46.546Z,7.45
2023-04-04T14:01:14.093Z,7.10
2023-04-04T14:03:41.606Z,5.90
2023-04-04T14:06:10.713Z,7.43
2023-04-04T14:08:39.420Z,11.53
2023-04-04T14:11:07.752Z,8.30
2023-04-04T14:13:36.904Z,6.37
2023-04-04T14:16:04.295Z,6.13
2023-04-04T14:18:32.149Z,5.60
2023-04-04T14:20:59.457Z,4.87
2023-04-04T14:23:27.298Z,6.57
2023-04-04T14:25:54.700Z,7.23
2023-04-04T14:28:22.188Z,5.90
2023-04-04T14:30:50.713Z,7.97
2023-04-04T14:33:22.588Z,5.87
2023-04-04T14:35:52.962Z,5.17
2023-04-04T14:38:20.371Z,4.80
2023-04-04T14:40:48.346Z,6.93
2023-04-04T14:43:17.110Z,6.43
2023-04-04T14:45:44.472Z,4.87
2023-04-04T14:48:12.105Z,5.40
2023-04-04T14:50:43.361Z,4.60
2023-04-04T14:53:10.715Z,5.00
2023-04-04T14:55:38.496Z,4.83
2023-04-04T14:58:07.158Z,6.83
2023-04-04T15:00:35.681Z,6.90
2023-04-04T15:03:05.690Z,5.90
2023-04-04T15:05:35.043Z,5.30
2023-04-04T15:08:02.377Z,7.97
2023-04-04T15:10:29.843Z,9.47
2023-04-04T15:12:58.445Z,8.07
2023-04-04T15:15:26.057Z,7.80
2023-04-04T15:17:53.683Z,5.03
2023-04-04T15:20:21.087Z,7.13
2023-04-04T15:22:49.076Z,5.93
2023-04-04T15:25:16.736Z,6.50
2023-04-04T15:27:44.773Z,6.53
2023-04-04T15:30:12.855Z,6.20
2023-04-04T15:32:40.264Z,7.47
2023-04-04T15:35:15.631Z,6.50
2023-04-04T15:37:43.533Z,5.77
2023-04-04T15:40:12.041Z,6.80
2023-04-04T15:42:40.180Z,4.47
2023-04-04T15:45:07.884Z,4.23
2023-04-04T15:47:35.867Z,4.70
2023-04-04T15:50:03.351Z,6.50
2023-04-04T15:52:30.699Z,9.47
2023-04-04T15:54:58.566Z,5.37
2023-04-04T15:57:27.848Z,7.50
2023-04-04T15:59:55.428Z,5.03
2023-04-04T16:02:22.789Z,8.53
2023-04-04T16:04:50.268Z,5.53
2023-04-04T16:07:17.540Z,6.83
2023-04-04T16:09:44.788Z,9.53
2023-04-04T16:12:12.504Z,14.23
2023-04-04T16:14:39.832Z,7.33
2023-04-04T16:17:07.163Z,12.97
2023-04-04T16:19:35.221Z,11.30
2023-04-04T16:22:03.044Z,12.13
2023-04-04T16:24:30.545Z,7.93
2023-04-04T16:26:58.288Z,17.53
2023-04-04T16:29:26.245Z,14.53
2023-04-04T16:31:54.172Z,10.70
2023-04-04T16:34:21.285Z,8.20
2023-04-04T16:36:49.187Z,7.73
2023-04-04T16:39:17.755Z,9.60
2023-04-04T16:41:45.414Z,9.83
2023-04-04T16:44:16.556Z,8.17
2023-04-04T16:46:44.122Z,7.55
2023-04-04T16:49:12.248Z,9.33
2023-04-04T16:51:39.995Z,7.63
2023-04-04T16:54:07.379Z,8.20
2023-04-04T16:56:35.176Z,9.37
2023-04-04T16:59:02.627Z,6.83
2023-04-04T17:01:32.211Z,8.80
2023-04-04T17:04:00.672Z,14.30
2023-04-04T17:06:30.389Z,7.77
2023-04-04T17:08:58.796Z,9.53
2023-04-04T17:11:26.389Z,11.23
2023-04-04T17:13:54.785Z,8.87
2023-04-04T17:16:24.336Z,11.93
2023-04-04T17:18:52.432Z,8.33
2023-04-04T17:21:19.882Z,7.93
2023-04-04T17:23:47.763Z,11.13
2023-04-04T17:26:15.118Z,6.40
2023-04-04T17:28:45.984Z,6.00
2023-04-04T17:31:14.259Z,8.20
2023-04-04T17:33:42.679Z,10.00
2023-04-04T17:36:10.631Z,12.87
2023-04-04T17:38:40.011Z,9.73
2023-04-04T17:41:08.613Z,10.97
2023-04-04T17:43:36.537Z,8.70
2023-04-04T17:46:07.059Z,12.73
2023-04-04T17:48:37.657Z,12.97
2023-04-04T17:51:07.834Z,10.37
2023-04-04T17:53:36.066Z,14.07
2023-04-04T17:56:03.758Z,13.43
2023-04-04T17:58:31.234Z,10.97
2023-04-04T18:00:59.091Z,8.80
2023-04-04T18:03:26.931Z,11.30
2023-04-04T18:05:54.721Z,7.17
2023-04-04T18:08:23.249Z,6.70
2023-04-04T18:10:52.572Z,9.97
2023-04-04T18:13:20.322Z,8.97
2023-04-04T18:15:48.702Z,13.00
2023-04-04T18:18:17.833Z,9.10
2023-04-04T18:20:45.971Z,6.77
2023-04-04T18:23:13.592Z,8.83
2023-04-04T18:25:41.465Z,7.43
2023-04-04T18:28:08.838Z,7.30
2023-04-04T18:30:40.110Z,6.80
2023-04-04T18:33:08.189Z,5.43
2023-04-04T18:35:35.494Z,6.93
2023-04-04T18:38:03.604Z,25.43
2023-04-04T18:40:31.455Z,7.60
2023-04-04T18:42:58.829Z,5.97
2023-04-04T18:45:33.699Z,8.83
2023-04-04T18:48:05.267Z,6.20
2023-04-04T18:50:33.469Z,6.87
2023-04-04T18:53:04.372Z,6.97
2023-04-04T18:55:32.701Z,7.05
2023-04-04T18:58:00.890Z,7.70
2023-04-04T19:00:28.301Z,4.60
2023-04-04T19:02:56.486Z,7.20
2023-04-04T19:05:24.778Z,9.80
2023-04-04T19:07:54.677Z,9.93
2023-04-04T19:10:23.010Z,35.47
2023-04-04T19:12:51.061Z,63.00
2023-04-04T19:15:18.783Z,24.73
2023-04-04T19:17:47.397Z,10.43
2023-04-04T19:20:15.526Z,12.67
2023-04-04T19:22:43.334Z,9.97
2023-04-04T19:25:11.202Z,6.60
2023-04-04T19:27:39.380Z,9.47
2023-04-04T19:30:15.593Z,7.23
2023-04-04T19:32:43.321Z,9.60
2023-04-04T19:35:20.873Z,4.50
2023-04-04T19:37:48.985Z,7.50
2023-04-04T19:40:17.525Z,5.70
2023-04-04T19:42:44.977Z,8.93
2023-04-04T19:45:13.837Z,4.83
2023-04-04T19:47:41.253Z,5.83
2023-04-04T19:50:09.319Z,8.87
2023-04-04T19:52:37.718Z,9.57
2023-04-04T19:55:09.398Z,7.53
2023-04-04T19:57:39.008Z,5.78
2023-04-04T20:00:14.269Z,8.30
2023-04-04T20:02:50.036Z,7.53
2023-04-04T20:05:30.052Z,12.57
2023-04-04T20:07:58.185Z,49.13
2023-04-04T20:10:40.118Z,24.87
2023-04-04T20:13:08.951Z,9.23
2023-04-04T20:15:48.707Z,11.10
2023-04-04T20:18:24.754Z,37.80
2023-04-04T20:21:11.086Z,140.27
2023-04-04T20:23:44.250Z,109.40
2023-04-04T20:26:15.415Z,118.87
2023-04-04T20:28:45.506Z,312.33
2023-04-04T20:31:16.534Z,134.27
2023-04-04T20:33:44.926Z,88.18
2023-04-04T20:36:13.354Z,43.37
2023-04-04T20:38:43.075Z,33.47
2023-04-04T20:41:14.903Z,13.07
2023-04-04T20:46:10.008Z,19.77
2023-04-04T20:48:41.514Z,46.00
2023-04-04T20:51:29.239Z,96.15
2023-04-04T20:53:57.543Z,147.77
2023-04-04T20:56:43.888Z,177.50
2023-04-04T20:59:29.953Z,411.73
2023-04-04T21:02:06.510Z,257.83
2023-04-04T21:04:34.605Z,252.60
2023-04-04T21:07:02.589Z,222.00
2023-04-04T21:09:30.107Z,150.30
2023-04-04T21:11:59.334Z,153.00
2023-04-04T21:14:34.218Z,232.57
2023-04-04T21:17:02.055Z,193.87
2023-04-04T21:19:30.503Z,231.33
2023-04-04T21:22:01.384Z,75.63
2023-04-04T21:24:35.276Z,60.97
2023-04-04T21:27:06.399Z,122.80
2023-04-04T21:29:34.348Z,96.13
2023-04-04T21:32:04.525Z,120.07
2023-04-04T21:34:32.053Z,121.57
2023-04-04T21:37:03.991Z,88.13
2023-04-04T21:39:31.734Z,70.90
2023-04-04T21:42:07.830Z,57.00
2023-04-04T21:44:36.644Z,54.40
2023-04-04T21:47:04.234Z,57.03
2023-04-04T21:49:31.671Z,53.23
2023-04-04T21:51:59.306Z,44.73
2023-04-04T21:54:26.623Z,41.50
2023-04-04T21:56:54.422Z,42.93
2023-04-04T21:59:22.152Z,33.33
2023-04-04T22:01:52.287Z,31.70
2023-04-04T22:04:19.658Z,31.27
2023-04-04T22:06:47.658Z,39.70
2023-04-04T22:09:16.311Z,76.77
2023-04-04T22:11:45.149Z,49.70
2023-04-04T22:14:18.287Z,26.43
2023-04-04T22:16:46.562Z,29.43
2023-04-04T22:19:14.482Z,27.77
2023-04-04T22:21:48.999Z,33.37
2023-04-04T22:24:18.818Z,28.93
2023-04-04T22:26:46.889Z,39.00
2023-04-04T22:29:14.604Z,35.53
2023-04-04T22:31:42.684Z,35.83
2023-04-04T22:34:10.790Z,33.77
2023-04-04T22:36:40.207Z,36.80
2023-04-04T22:39:08.156Z,31.33
2023-04-04T22:41:35.701Z,32.00
2023-04-04T22:44:03.808Z,30.57
2023-04-04T22:46:32.415Z,33.47
2023-04-04T22:49:06.720Z,27.63
2023-04-04T22:51:36.114Z,34.80
2023-04-04T22:54:04.820Z,24.73
2023-04-04T22:56:34.784Z,27.93
2023-04-04T22:59:02.822Z,28.43
2023-04-04T23:01:30.217Z,33.63
2023-04-04T23:03:57.870Z,31.07
2023-04-04T23:06:25.441Z,31.77
2023-04-04T23:08:52.823Z,27.50
2023-04-04T23:11:20.236Z,24.17
2023-04-04T23:13:47.987Z,25.03
2023-04-04T23:16:19.539Z,26.20
2023-04-04T23:18:46.991Z,27.27
2023-04-04T23:21:14.733Z,34.27
2023-04-04T23:23:42.248Z,41.70
2023-04-04T23:26:09.800Z,41.90
2023-04-04T23:28:38.216Z,38.83
2023-04-04T23:31:05.763Z,41.43
2023-04-04T23:33:33.206Z,30.47
2023-04-04T23:36:00.430Z,31.67
2023-04-04T23:38:30.741Z,31.37
2023-04-04T23:40:57.942Z,35.97
2023-04-04T23:43:25.298Z,21.17
2023-04-04T23:45:53.009Z,21.63
2023-04-04T23:48:20.737Z,23.13
2023-04-04T23:50:48.099Z,25.00
2023-04-04T23:53:15.159Z,22.87
2023-04-04T23:55:42.688Z,25.53
2023-04-04T23:58:10.353Z,29.27
